createdAt,value
2022-12-14T00:01:36.613Z,32.50
2022-12-14T00:04:03.743Z,32.30
2022-12-14T00:06:32.083Z,30.10
2022-12-14T00:09:00.479Z,29.70
2022-12-14T00:11:27.390Z,28.30
2022-12-14T00:13:56.255Z,27.40
2022-12-14T00:16:23.931Z,23.60
2022-12-14T00:18:52.588Z,24.50
2022-12-14T00:21:19.737Z,24.60
2022-12-14T00:23:47.124Z,29.30
2022-12-14T00:26:18.382Z,29.30
2022-12-14T00:28:45.653Z,32.30
2022-12-14T00:31:15.658Z,34.10
2022-12-14T00:33:42.614Z,33.70
2022-12-14T00:36:10.108Z,34.90
2022-12-14T00:38:40.292Z,33.90
2022-12-14T00:41:07.195Z,30.70
2022-12-14T00:43:34.029Z,30.40
2022-12-14T00:46:00.954Z,29.70
2022-12-14T00:48:28.052Z,31.60
2022-12-14T00:50:55.487Z,30.10
2022-12-14T00:53:22.938Z,33.80
2022-12-14T00:55:50.041Z,35.90
2022-12-14T00:58:19.482Z,45.80
2022-12-14T01:00:46.653Z,48.90
2022-12-14T01:03:13.644Z,39.20
2022-12-14T01:05:41.161Z,30.70
2022-12-14T01:08:08.163Z,26.60
2022-12-14T01:10:38.071Z,27.00
2022-12-14T01:13:04.911Z,25.80
2022-12-14T01:15:31.747Z,25.70
2022-12-14T01:17:58.530Z,24.60
2022-12-14T01:20:25.393Z,24.70
2022-12-14T01:22:56.333Z,26.70
2022-12-14T01:25:23.243Z,24.20
2022-12-14T01:27:50.210Z,25.80
2022-12-14T01:30:19.382Z,24.50
2022-12-14T01:32:47.088Z,25.20
2022-12-14T01:35:14.056Z,25.70
2022-12-14T01:37:40.908Z,23.60
2022-12-14T01:40:08.325Z,26.80
2022-12-14T01:42:36.184Z,29.00
2022-12-14T01:45:03.064Z,41.50
2022-12-14T01:47:39.645Z,47.30
2022-12-14T01:50:30.503Z,58.40
2022-12-14T01:53:00.125Z,53.00
2022-12-14T01:55:49.547Z,47.80
2022-12-14T01:58:23.172Z,48.20
2022-12-14T02:00:52.670Z,41.60
2022-12-14T02:03:25.551Z,31.40
2022-12-14T02:05:59.384Z,30.60
2022-12-14T02:08:26.303Z,30.10
2022-12-14T02:10:53.538Z,36.70
2022-12-14T02:13:32.994Z,38.70
2022-12-14T02:16:00.001Z,34.40
2022-12-14T02:18:28.638Z,26.00
2022-12-14T02:21:35.291Z,18.70
2022-12-14T02:24:08.902Z,20.70
2022-12-14T02:26:54.083Z,23.60
2022-12-14T02:29:33.048Z,18.90
2022-12-14T02:32:18.920Z,18.80
2022-12-14T02:35:37.992Z,19.40
2022-12-14T02:38:11.507Z,18.40
2022-12-14T02:41:06.390Z,17.80
2022-12-14T02:43:58.810Z,20.60
2022-12-14T02:46:29.345Z,18.00
2022-12-14T02:48:56.187Z,18.60
2022-12-14T02:51:32.607Z,19.00
2022-12-14T02:54:21.015Z,18.90
2022-12-14T02:56:51.536Z,19.60
2022-12-14T02:59:18.353Z,20.90
2022-12-14T03:01:47.212Z,17.80
2022-12-14T03:04:14.740Z,19.30
2022-12-14T03:07:00.160Z,20.90
2022-12-14T03:09:27.487Z,18.40
2022-12-14T03:12:07.589Z,20.40
2022-12-14T03:14:36.891Z,24.60
2022-12-14T03:17:10.665Z,23.20
2022-12-14T03:19:40.903Z,24.10
2022-12-14T03:22:09.238Z,25.00
2022-12-14T03:24:42.101Z,26.00
2022-12-14T03:29:43.307Z,23.10
2022-12-14T03:32:12.262Z,23.50
2022-12-14T03:34:47.317Z,22.20
2022-12-14T03:37:17.724Z,21.40
2022-12-14T03:39:44.547Z,16.40
2022-12-14T03:42:33.320Z,15.60
2022-12-14T03:45:05.051Z,17.10
2022-12-14T03:48:02.299Z,19.90
2022-12-14T03:50:37.815Z,22.20
2022-12-14T03:53:32.531Z,24.00
2022-12-14T03:56:37.874Z,21.40
2022-12-14T03:59:10.052Z,21.50
2022-12-14T04:01:55.232Z,18.10
2022-12-14T04:04:27.780Z,17.50
2022-12-14T04:07:23.507Z,15.20
2022-12-14T04:10:00.167Z,15.80
2022-12-14T04:12:51.546Z,15.70
2022-12-14T04:15:50.016Z,14.20
2022-12-14T04:18:44.127Z,12.20
2022-12-14T04:21:13.738Z,11.10
2022-12-14T04:24:01.716Z,11.00
2022-12-14T04:26:31.284Z,11.90
2022-12-14T04:29:18.792Z,10.90
2022-12-14T04:31:49.321Z,13.30
2022-12-14T04:34:18.600Z,13.30
2022-12-14T04:37:05.133Z,14.30
2022-12-14T04:39:41.456Z,19.90
2022-12-14T04:42:10.443Z,17.00
2022-12-14T04:44:39.126Z,17.50
2022-12-14T04:47:07.886Z,20.80
2022-12-14T04:49:51.106Z,23.00
2022-12-14T04:54:56.891Z,21.60
2022-12-14T04:57:23.729Z,20.60
2022-12-14T04:59:50.544Z,18.70
2022-12-14T05:02:36.361Z,18.50
2022-12-14T05:05:08.796Z,18.40
2022-12-14T05:07:45.103Z,30.20
2022-12-14T05:10:27.865Z,24.50
2022-12-14T05:13:09.015Z,23.90
2022-12-14T05:15:39.686Z,27.40
2022-12-14T05:18:09.756Z,25.40
2022-12-14T05:20:36.733Z,29.00
2022-12-14T05:23:03.552Z,24.40
2022-12-14T05:25:30.420Z,29.60
2022-12-14T05:27:57.293Z,35.00
2022-12-14T05:32:11.031Z,43.30
2022-12-14T05:34:38.033Z,37.50
2022-12-14T05:37:04.897Z,35.60
2022-12-14T05:39:31.770Z,31.80
2022-12-14T05:41:58.649Z,28.70
2022-12-14T05:44:25.526Z,26.30
2022-12-14T05:46:52.428Z,24.50
2022-12-14T05:49:19.334Z,20.50
2022-12-14T05:51:46.246Z,18.20
2022-12-14T05:54:13.090Z,16.90
2022-12-14T05:56:39.947Z,12.90
2022-12-14T05:59:09.181Z,11.90
2022-12-14T06:01:36.105Z,13.10
2022-12-14T06:04:05.529Z,11.80
2022-12-14T06:06:33.139Z,11.90
2022-12-14T06:08:59.996Z,12.50
2022-12-14T06:11:26.938Z,13.10
2022-12-14T06:13:53.810Z,16.00
2022-12-14T06:16:24.843Z,16.60
2022-12-14T06:18:53.642Z,17.20
2022-12-14T06:21:22.028Z,18.60
2022-12-14T06:23:53.796Z,18.00
2022-12-14T06:26:20.841Z,19.40
2022-12-14T06:28:49.984Z,15.60
2022-12-14T06:31:18.473Z,14.30
2022-12-14T06:33:45.499Z,15.30
2022-12-14T06:36:19.789Z,16.10
2022-12-14T06:38:50.073Z,15.20
2022-12-14T06:41:17.297Z,16.50
2022-12-14T06:43:44.216Z,16.30
2022-12-14T06:46:15.571Z,16.40
2022-12-14T06:48:43.048Z,18.70
2022-12-14T06:51:09.944Z,19.70
2022-12-14T06:53:39.111Z,19.50
2022-12-14T06:56:10.515Z,19.30
2022-12-14T06:58:37.704Z,18.80
2022-12-14T07:01:05.862Z,16.70
2022-12-14T07:03:32.975Z,16.90
2022-12-14T07:06:00.405Z,17.10
2022-12-14T07:08:27.752Z,18.60
2022-12-14T07:11:00.511Z,19.00
2022-12-14T07:13:29.783Z,19.00
2022-12-14T07:15:57.355Z,24.50
2022-12-14T07:18:24.288Z,36.20
2022-12-14T07:21:05.894Z,38.10
2022-12-14T07:23:34.303Z,41.40
2022-12-14T07:26:06.668Z,40.20
2022-12-14T07:31:01.683Z,40.80
2022-12-14T07:33:31.215Z,42.00
2022-12-14T07:36:10.343Z,42.90
2022-12-14T07:38:38.251Z,36.10
2022-12-14T07:41:08.394Z,37.70
2022-12-14T07:43:35.262Z,36.80
2022-12-14T07:46:03.342Z,39.40
2022-12-14T07:48:35.333Z,36.70
2022-12-14T07:51:11.238Z,37.70
2022-12-14T07:53:38.291Z,35.80
2022-12-14T07:56:12.653Z,34.90
2022-12-14T07:58:39.541Z,37.50
2022-12-14T08:01:22.590Z,36.00
2022-12-14T08:03:51.031Z,38.80
2022-12-14T08:06:18.509Z,40.00
2022-12-14T08:08:45.503Z,43.90
2022-12-14T08:11:12.792Z,42.40
2022-12-14T08:13:43.409Z,44.70
2022-12-14T08:16:15.354Z,47.80
2022-12-14T08:18:44.709Z,52.60
2022-12-14T08:21:12.406Z,58.10
2022-12-14T08:23:39.347Z,54.40
2022-12-14T08:26:08.521Z,52.40
2022-12-14T08:28:37.773Z,46.20
2022-12-14T08:31:06.229Z,41.40
2022-12-14T08:33:35.971Z,40.30
2022-12-14T08:36:13.162Z,39.20
2022-12-14T08:38:40.678Z,38.00
2022-12-14T08:41:08.969Z,36.10
2022-12-14T08:43:36.049Z,34.90
2022-12-14T08:46:03.008Z,33.50
2022-12-14T08:48:29.834Z,28.80
2022-12-14T08:51:06.577Z,26.50
2022-12-14T08:53:33.937Z,25.50
2022-12-14T08:56:05.355Z,27.20
2022-12-14T08:58:32.201Z,26.70
2022-12-14T09:01:06.412Z,29.30
2022-12-14T09:03:35.528Z,27.10
2022-12-14T09:06:06.893Z,27.00
2022-12-14T09:08:34.214Z,26.20
2022-12-14T09:11:01.539Z,24.20
2022-12-14T09:13:28.856Z,23.50
2022-12-14T09:16:06.707Z,24.60
2022-12-14T09:18:34.572Z,29.40
2022-12-14T09:21:01.491Z,27.40
2022-12-14T09:23:29.130Z,27.90
2022-12-14T09:26:02.884Z,30.80
2022-12-14T09:28:32.838Z,31.10
2022-12-14T09:31:04.861Z,28.50
2022-12-14T09:33:37.381Z,28.70
2022-12-14T09:36:05.774Z,24.00
2022-12-14T09:38:35.827Z,25.90
2022-12-14T09:41:08.009Z,27.00
2022-12-14T09:43:44.084Z,18.90
2022-12-14T09:46:23.440Z,16.90
2022-12-14T09:49:26.170Z,17.60
2022-12-14T09:55:31.912Z,19.50
2022-12-14T09:58:15.796Z,20.40
2022-12-14T10:00:51.618Z,26.30
2022-12-14T10:03:41.346Z,25.20
2022-12-14T10:06:59.716Z,23.70
2022-12-14T10:09:57.463Z,20.50
2022-12-14T10:12:34.536Z,19.10
2022-12-14T10:15:22.848Z,17.40
2022-12-14T10:18:17.547Z,17.90
2022-12-14T10:21:01.883Z,15.60
2022-12-14T10:23:31.449Z,17.80
2022-12-14T10:26:02.999Z,17.60
2022-12-14T10:28:56.389Z,16.00
2022-12-14T10:31:40.996Z,16.00
2022-12-14T10:34:23.122Z,15.40
2022-12-14T10:37:25.831Z,17.00
2022-12-14T10:40:17.757Z,17.60
2022-12-14T10:43:17.945Z,16.70
2022-12-14T10:46:26.459Z,18.80
2022-12-14T10:49:04.882Z,17.50
2022-12-14T10:51:38.559Z,14.80
2022-12-14T10:54:34.194Z,15.30
2022-12-14T10:57:01.329Z,15.10
2022-12-14T10:59:39.549Z,16.10
2022-12-14T11:02:27.682Z,15.00
2022-12-14T11:05:14.906Z,16.00
2022-12-14T11:07:45.825Z,16.30
2022-12-14T11:10:32.538Z,17.50
2022-12-14T11:13:05.880Z,18.00
2022-12-14T11:15:43.987Z,18.20
2022-12-14T11:18:24.345Z,16.30
2022-12-14T11:20:58.070Z,17.50
2022-12-14T11:23:39.352Z,16.20
2022-12-14T11:26:12.619Z,18.00
2022-12-14T11:28:41.563Z,17.00
2022-12-14T11:31:11.393Z,17.80
2022-12-14T11:33:45.408Z,17.50
2022-12-14T11:36:25.171Z,17.90
2022-12-14T11:39:24.991Z,17.80
2022-12-14T11:41:58.370Z,17.20
2022-12-14T11:44:26.388Z,18.00
2022-12-14T11:46:55.291Z,16.50
2022-12-14T11:49:27.960Z,21.00
2022-12-14T11:51:55.600Z,16.80
2022-12-14T11:54:22.408Z,18.00
2022-12-14T11:56:56.471Z,17.70
2022-12-14T11:59:23.339Z,20.40
2022-12-14T12:01:50.447Z,18.40
2022-12-14T12:04:17.592Z,18.40
2022-12-14T12:06:44.534Z,18.80
2022-12-14T12:09:34.914Z,18.90
2022-12-14T12:12:15.282Z,18.90
2022-12-14T12:14:42.436Z,18.50
2022-12-14T12:17:42.154Z,17.20
2022-12-14T12:20:16.161Z,17.40
2022-12-14T12:22:44.572Z,16.90
2022-12-14T12:25:26.520Z,16.70
2022-12-14T12:28:10.620Z,16.80
2022-12-14T12:30:39.761Z,19.90
2022-12-14T12:33:28.843Z,19.70
2022-12-14T12:35:56.610Z,19.50
2022-12-14T12:38:50.481Z,18.70
2022-12-14T12:41:20.428Z,18.30
2022-12-14T12:44:05.468Z,19.20
2022-12-14T12:47:07.228Z,20.40
2022-12-14T12:49:34.126Z,20.50
2022-12-14T12:52:06.581Z,20.80
2022-12-14T12:54:37.921Z,19.10
2022-12-14T12:57:06.105Z,20.80
2022-12-14T12:59:35.085Z,21.60
2022-12-14T13:02:13.113Z,20.10
2022-12-14T13:04:46.538Z,18.60
2022-12-14T13:07:30.308Z,19.20
2022-12-14T13:10:22.671Z,21.50
2022-12-14T13:12:56.315Z,18.10
2022-12-14T13:15:32.866Z,17.40
2022-12-14T13:18:48.770Z,17.30
2022-12-14T13:21:29.673Z,19.10
2022-12-14T13:23:59.570Z,17.70
2022-12-14T13:27:02.949Z,15.60
2022-12-14T13:30:07.391Z,15.30
2022-12-14T13:32:56.611Z,17.20
2022-12-14T13:35:47.980Z,16.10
2022-12-14T13:38:33.572Z,16.00
2022-12-14T13:41:19.132Z,17.30
2022-12-14T13:44:04.551Z,16.10
2022-12-14T13:46:31.583Z,15.50
2022-12-14T13:49:00.973Z,18.00
2022-12-14T13:51:31.908Z,18.40
2022-12-14T13:53:59.672Z,19.20
2022-12-14T13:56:33.645Z,19.80
2022-12-14T13:59:04.660Z,19.00
2022-12-14T14:01:51.624Z,18.30
2022-12-14T14:04:25.197Z,17.90
2022-12-14T14:06:53.474Z,18.40
2022-12-14T14:09:26.457Z,20.00
2022-12-14T14:12:25.570Z,20.20
2022-12-14T14:15:04.759Z,21.20
2022-12-14T14:17:47.083Z,21.70
2022-12-14T14:20:58.593Z,21.90
2022-12-14T14:23:31.388Z,21.70
2022-12-14T14:26:27.440Z,22.90
2022-12-14T14:29:32.056Z,21.40
2022-12-14T14:32:21.661Z,19.90
2022-12-14T14:34:49.437Z,18.90
2022-12-14T14:37:20.420Z,20.40
2022-12-14T14:40:20.692Z,21.80
2022-12-14T14:43:07.865Z,25.30
2022-12-14T14:45:38.731Z,22.30
2022-12-14T14:48:32.573Z,26.90
2022-12-14T14:51:12.072Z,27.90
2022-12-14T14:53:39.530Z,23.70
2022-12-14T14:56:35.373Z,24.20
2022-12-14T14:59:17.478Z,23.90
2022-12-14T15:01:50.509Z,25.50
2022-12-14T15:06:57.006Z,26.00
2022-12-14T15:09:31.113Z,25.50
2022-12-14T15:12:04.518Z,25.60
2022-12-14T15:14:35.099Z,21.10
2022-12-14T15:17:22.274Z,23.00
2022-12-14T15:19:50.206Z,23.10
2022-12-14T15:22:19.763Z,23.40
2022-12-14T15:24:48.867Z,23.40
2022-12-14T15:27:37.447Z,21.90
2022-12-14T15:30:13.435Z,22.10
2022-12-14T15:32:45.896Z,25.70
2022-12-14T15:35:18.751Z,24.40
2022-12-14T15:37:59.544Z,24.80
2022-12-14T15:40:27.883Z,24.30
2022-12-14T15:42:56.274Z,25.20
2022-12-14T15:45:34.721Z,24.80
2022-12-14T15:48:23.957Z,26.10
2022-12-14T15:50:55.272Z,24.30
2022-12-14T15:53:32.892Z,23.80
2022-12-14T15:56:06.762Z,25.20
2022-12-14T15:58:38.970Z,25.40
2022-12-14T16:01:23.182Z,27.30
2022-12-14T16:04:01.793Z,23.80
2022-12-14T16:06:29.133Z,25.80
2022-12-14T16:09:09.038Z,24.90
2022-12-14T16:11:45.856Z,25.20
2022-12-14T16:14:23.843Z,27.20
2022-12-14T16:16:53.245Z,26.40
2022-12-14T16:19:27.733Z,26.30
2022-12-14T16:22:19.151Z,26.50
2022-12-14T16:25:16.920Z,27.90
2022-12-14T16:27:50.176Z,28.30
2022-12-14T16:30:28.953Z,32.50
2022-12-14T16:33:16.353Z,28.10
2022-12-14T16:35:43.391Z,28.10
2022-12-14T16:38:18.475Z,24.90
2022-12-14T16:40:48.494Z,25.00
2022-12-14T16:43:28.837Z,23.90
2022-12-14T16:46:12.859Z,27.50
2022-12-14T16:48:41.990Z,25.70
2022-12-14T16:54:30.537Z,28.60
2022-12-14T16:57:05.821Z,28.30
2022-12-14T16:59:48.511Z,28.40
2022-12-14T17:02:31.648Z,27.60
2022-12-14T17:04:59.912Z,26.60
2022-12-14T17:07:30.730Z,22.90
2022-12-14T17:10:00.495Z,26.40
2022-12-14T17:12:33.254Z,23.60
2022-12-14T17:15:03.414Z,27.00
2022-12-14T17:17:34.217Z,26.40
2022-12-14T17:20:02.732Z,24.60
2022-12-14T17:22:31.560Z,26.00
2022-12-14T17:25:02.739Z,28.50
2022-12-14T17:27:32.417Z,26.70
2022-12-14T17:29:59.431Z,29.00
2022-12-14T17:32:29.847Z,27.90
2022-12-14T17:35:00.352Z,29.50
2022-12-14T17:37:31.135Z,29.10
2022-12-14T17:40:08.789Z,26.10
2022-12-14T17:42:35.851Z,28.30
2022-12-14T17:50:21.775Z,27.90
2022-12-14T17:52:52.339Z,29.30
2022-12-14T17:55:27.797Z,27.80
2022-12-14T17:58:01.187Z,28.80
2022-12-14T18:00:48.608Z,28.20
2022-12-14T18:03:16.776Z,29.60
2022-12-14T18:05:48.851Z,29.30
2022-12-14T18:08:22.653Z,30.30
2022-12-14T18:10:56.337Z,29.10
2022-12-14T18:13:23.914Z,30.40
2022-12-14T18:15:52.138Z,29.50
2022-12-14T18:18:20.977Z,28.10
2022-12-14T18:20:53.101Z,29.60
2022-12-14T18:23:25.823Z,29.70
